Time;durP1;ratioP1;P1;durP2;ratioP2;P2;SDS_P1;SDS_P2;PMS_P1;PMS_P2;Temp;Humidity;BMP_temperature;BMP_pressure;BME280_temperature;BME280_humidity;BME280_pressure;Samples;Min_cycle;Max_cycle;Signal;HPM_P1;HPM_P2
2023/07/15 00:01:19;;;;;;;5.25;4.00;;;;;;;-145.41;100.00;58600.66;4999806;28;20033;-76
2023/07/15 00:03:49;;;;;;;4.97;3.78;;;;;;;-145.41;100.00;58600.66;5005531;28;20041;-76
2023/07/15 00:06:15;;;;;;;7.22;4.70;;;;;;;-145.41;100.00;58600.66;4991848;28;20105;-77
2023/07/15 00:08:40;;;;;;;7.38;3.15;;;;;;;-145.41;100.00;58600.66;5000536;28;20041;-77
2023/07/15 00:11:18;;;;;;;5.32;2.72;;;;;;;-145.41;100.00;58600.66;4996115;28;20036;-77
2023/07/15 00:13:43;;;;;;;7.72;3.65;;;;;;;-145.41;100.00;58600.66;4987948;28;20080;-76
2023/07/15 00:16:08;;;;;;;4.95;3.25;;;;;;;-145.41;100.00;58600.66;4987236;28;20029;-77
2023/07/15 00:18:34;;;;;;;5.50;3.47;;;;;;;-145.41;100.00;58600.66;4996659;28;20521;-77
2023/07/15 00:20:59;;;;;;;5.38;3.97;;;;;;;-145.41;100.00;58600.66;4996783;28;20045;-76
2023/07/15 00:23:26;;;;;;;6.68;4.18;;;;;;;-145.41;100.00;58600.66;4995137;28;20070;-77
2023/07/15 00:25:53;;;;;;;7.03;5.00;;;;;;;-145.41;100.00;58600.66;4999688;28;20034;-77
2023/07/15 00:28:20;;;;;;;7.38;5.47;;;;;;;-145.41;100.00;58600.66;4996480;28;20169;-77
2023/07/15 00:30:46;;;;;;;6.50;4.82;;;;;;;-145.41;100.00;58600.66;4995446;28;20030;-77
2023/07/15 00:33:15;;;;;;;9.77;5.50;;;;;;;-145.41;100.00;58600.66;4992427;28;20092;-76
2023/07/15 00:35:43;;;;;;;5.43;3.30;;;;;;;-145.41;100.00;58600.66;4998027;28;20124;-76
2023/07/15 00:38:10;;;;;;;5.10;4.05;;;;;;;-145.41;100.00;58600.66;4996052;28;20088;-76
2023/07/15 00:40:44;;;;;;;6.80;3.67;;;;;;;-145.41;100.00;58600.66;4991826;28;20125;-76
2023/07/15 00:43:47;;;;;;;6.30;3.50;;;;;;;-145.41;100.00;58600.66;4992252;28;20040;-76
2023/07/15 00:46:19;;;;;;;5.10;3.58;;;;;;;-145.41;100.00;58600.66;4995805;28;20072;-76
2023/07/15 00:48:55;;;;;;;6.00;3.40;;;;;;;-145.41;100.00;58600.66;4991306;28;20081;-77
2023/07/15 00:51:22;;;;;;;6.07;4.03;;;;;;;-145.41;100.00;58600.66;4989753;28;20058;-76
2023/07/15 00:53:49;;;;;;;5.82;4.13;;;;;;;-145.41;100.00;58600.66;5001852;28;20032;-77
2023/07/15 00:56:15;;;;;;;7.75;3.88;;;;;;;-145.41;100.00;58600.66;4997731;28;20437;-76
2023/07/15 00:58:40;;;;;;;6.90;3.75;;;;;;;-145.41;100.00;58600.66;4996301;28;20089;-77
2023/07/15 01:01:10;;;;;;;7.10;3.90;;;;;;;-145.41;100.00;58600.66;4997392;28;20501;-76
2023/07/15 01:03:37;;;;;;;5.18;2.95;;;;;;;-145.41;100.00;58600.66;4996837;28;20086;-77
2023/07/15 01:06:03;;;;;;;5.25;2.20;;;;;;;-145.41;100.00;58600.66;4998926;28;20038;-77
2023/07/15 01:08:28;;;;;;;6.85;2.78;;;;;;;-145.41;100.00;58600.66;5000476;28;20037;-76
2023/07/15 01:10:55;;;;;;;6.53;2.47;;;;;;;-145.41;100.00;58600.66;4991710;28;20064;-77
2023/07/15 01:13:20;;;;;;;6.30;2.65;;;;;;;-145.41;100.00;58600.66;4994747;28;20537;-76
2023/07/15 01:15:46;;;;;;;7.90;3.25;;;;;;;-145.41;100.00;58600.66;4998436;28;20042;-76
2023/07/15 01:18:12;;;;;;;4.82;2.60;;;;;;;-145.41;100.00;58600.66;4998144;28;20026;-76
2023/07/15 01:20:37;;;;;;;4.97;3.10;;;;;;;-145.41;100.00;58600.66;4996710;28;20034;-77
2023/07/15 01:23:03;;;;;;;6.50;3.78;;;;;;;-145.41;100.00;58600.66;5000483;28;20042;-77
2023/07/15 01:25:29;;;;;;;6.78;3.53;;;;;;;-145.41;100.00;58600.66;4997042;28;20180;-76
2023/07/15 01:27:54;;;;;;;6.93;2.70;;;;;;;-145.41;100.00;58600.66;5004046;28;20121;-76
2023/07/15 01:30:19;;;;;;;7.38;2.80;;;;;;;-145.41;100.00;58600.66;5002552;28;20030;-76
2023/07/15 01:32:45;;;;;;;7.28;3.78;;;;;;;-145.41;100.00;58600.66;5002760;28;20462;-76
2023/07/15 01:35:10;;;;;;;7.78;3.92;;;;;;;-145.41;100.00;58600.66;5003443;28;20041;-76
2023/07/15 01:37:35;;;;;;;6.40;3.97;;;;;;;-145.41;100.00;58600.66;4995020;28;20493;-76
2023/07/15 01:40:03;;;;;;;9.00;4.45;;;;;;;-145.41;100.00;58600.66;4995596;28;20113;-76
2023/07/15 01:42:28;;;;;;;5.80;3.90;;;;;;;-145.41;100.00;58600.66;5000141;28;20057;-76
2023/07/15 01:44:55;;;;;;;4.85;3.35;;;;;;;-145.41;100.00;58600.66;5002784;28;20030;-77
2023/07/15 01:47:21;;;;;;;8.23;3.60;;;;;;;-145.41;100.00;58600.66;4992045;28;20048;-76
2023/07/15 01:49:47;;;;;;;4.80;2.92;;;;;;;-145.41;100.00;58600.66;5003957;28;20042;-76
2023/07/15 01:52:14;;;;;;;6.93;3.10;;;;;;;-145.41;100.00;58600.66;5001670;28;20411;-77
2023/07/15 01:54:39;;;;;;;4.32;2.78;;;;;;;-145.41;100.00;58600.66;4999747;28;20125;-77
2023/07/15 01:57:06;;;;;;;5.07;2.90;;;;;;;-145.41;100.00;58600.66;5001571;28;20030;-76
2023/07/15 01:59:31;;;;;;;5.68;2.85;;;;;;;-145.41;100.00;58600.66;4993391;28;20408;-77
2023/07/15 02:01:57;;;;;;;4.63;2.53;;;;;;;-145.41;100.00;58600.66;4993843;28;20043;-76
2023/07/15 02:04:23;;;;;;;4.70;2.58;;;;;;;-145.41;100.00;58600.66;4999738;28;20034;-76
2023/07/15 02:06:49;;;;;;;5.72;3.42;;;;;;;-145.41;100.00;58600.66;5004343;28;20037;-77
2023/07/15 02:09:16;;;;;;;6.20;2.75;;;;;;;-145.41;100.00;58600.66;4994282;28;20038;-76
2023/07/15 02:11:41;;;;;;;5.65;3.67;;;;;;;-145.41;100.00;58600.66;4999843;28;20022;-76
2023/07/15 02:14:10;;;;;;;6.10;3.88;;;;;;;-145.41;100.00;58600.66;4988149;28;20493;-76
2023/07/15 02:16:36;;;;;;;5.68;2.95;;;;;;;-145.41;100.00;58600.66;5013404;28;20031;-77
2023/07/15 02:19:02;;;;;;;7.55;3.13;;;;;;;-145.41;100.00;58600.66;4987977;28;20528;-77
2023/07/15 02:21:28;;;;;;;6.07;2.80;;;;;;;-145.41;100.00;58600.66;5003258;28;20073;-76
2023/07/15 02:23:53;;;;;;;5.30;2.90;;;;;;;-145.41;100.00;58600.66;5000186;28;20061;-77
2023/07/15 02:26:19;;;;;;;5.10;3.08;;;;;;;-145.41;100.00;58600.66;4994020;28;20034;-76
2023/07/15 02:28:45;;;;;;;6.45;3.10;;;;;;;-145.41;100.00;58600.66;4999812;28;20030;-77
2023/07/15 02:31:10;;;;;;;4.85;2.55;;;;;;;-145.41;100.00;58600.66;5005730;28;20036;-77
2023/07/15 02:33:36;;;;;;;8.35;3.10;;;;;;;-145.41;100.00;58600.66;5002285;28;20515;-76
2023/07/15 02:36:04;;;;;;;8.35;3.35;;;;;;;-145.41;100.00;58600.66;5001487;28;20505;-76
2023/07/15 02:38:29;;;;;;;6.13;3.50;;;;;;;-145.41;100.00;58600.66;4997115;28;20069;-76
2023/07/15 02:40:54;;;;;;;5.05;3.13;;;;;;;-145.41;100.00;58600.66;4992849;28;20038;-77
2023/07/15 02:43:20;;;;;;;6.25;2.60;;;;;;;-145.41;100.00;58600.66;5001473;28;20073;-76
2023/07/15 02:45:50;;;;;;;4.70;2.70;;;;;;;-145.41;100.00;58600.66;4994092;28;20036;-77
2023/07/15 02:48:15;;;;;;;6.63;2.90;;;;;;;-145.41;100.00;58600.66;4993767;28;20042;-76
2023/07/15 02:50:40;;;;;;;5.00;2.58;;;;;;;-145.41;100.00;58600.66;4999034;28;20034;-77
2023/07/15 02:53:05;;;;;;;5.30;2.55;;;;;;;-145.41;100.00;58600.66;4996392;28;20049;-76
2023/07/15 02:55:31;;;;;;;4.95;2.42;;;;;;;-145.41;100.00;58600.66;5008378;28;20034;-76
2023/07/15 02:57:57;;;;;;;4.38;2.83;;;;;;;-145.41;100.00;58600.66;5005934;28;20030;-76
2023/07/15 03:00:22;;;;;;;5.88;3.25;;;;;;;-145.41;100.00;58600.66;5000695;28;20028;-76
2023/07/15 03:02:48;;;;;;;6.28;2.92;;;;;;;-145.41;100.00;58600.66;5005018;28;20053;-76
2023/07/15 03:05:14;;;;;;;6.50;3.00;;;;;;;-145.41;100.00;58600.66;4996115;28;20081;-76
2023/07/15 03:07:44;;;;;;;5.88;2.85;;;;;;;-145.41;100.00;58600.66;4999827;28;20489;-76
2023/07/15 03:10:12;;;;;;;5.28;2.60;;;;;;;-145.41;100.00;58600.66;4999234;28;20114;-76
2023/07/15 03:12:38;;;;;;;7.05;3.13;;;;;;;-145.41;100.00;58600.66;5002385;28;20416;-76
2023/07/15 03:15:04;;;;;;;4.88;2.90;;;;;;;-145.41;100.00;58600.66;4994938;28;20038;-76
2023/07/15 03:17:35;;;;;;;6.45;2.60;;;;;;;-145.41;100.00;58600.66;5003744;28;20030;-76
2023/07/15 03:20:19;;;;;;;6.95;3.15;;;;;;;-145.41;100.00;58600.66;4981247;28;20084;-76
2023/07/15 03:22:54;;;;;;;5.20;3.30;;;;;;;-145.41;100.00;58600.66;5002039;28;20114;-76
2023/07/15 03:25:20;;;;;;;8.02;3.35;;;;;;;-145.41;100.00;58600.66;5055922;22;20104;-75
2023/07/15 03:27:47;;;;;;;4.70;2.75;;;;;;;-145.41;100.00;58600.66;4993398;28;20030;-75
2023/07/15 03:30:12;;;;;;;5.03;2.92;;;;;;;-145.41;100.00;58600.66;4992106;28;20076;-75
2023/07/15 03:32:39;;;;;;;5.72;2.83;;;;;;;-145.41;100.00;58600.66;4993002;28;20069;-75
2023/07/15 03:35:08;;;;;;;5.40;2.60;;;;;;;-145.41;100.00;58600.66;4992808;28;20425;-75
2023/07/15 03:37:34;;;;;;;5.07;2.72;;;;;;;-145.41;100.00;58600.66;4993302;28;20039;-75
2023/07/15 03:40:00;;;;;;;5.07;2.85;;;;;;;-145.41;100.00;58600.66;4992181;28;20081;-74
2023/07/15 03:42:26;;;;;;;5.68;2.90;;;;;;;-145.41;100.00;58600.66;4997023;28;20496;-74
2023/07/15 03:44:52;;;;;;;7.93;3.40;;;;;;;-145.41;100.00;58600.66;4991433;28;20554;-75
2023/07/15 03:47:18;;;;;;;4.95;2.58;;;;;;;-145.41;100.00;58600.66;4989308;28;20037;-74
2023/07/15 03:49:44;;;;;;;4.43;2.70;;;;;;;-145.41;100.00;58600.66;4989795;28;20053;-75
2023/07/15 03:52:10;;;;;;;4.72;2.80;;;;;;;-145.41;100.00;58600.66;4992558;28;20034;-74
2023/07/15 03:54:35;;;;;;;5.50;2.53;;;;;;;-145.41;100.00;58600.66;4991068;28;20570;-74
2023/07/15 03:57:01;;;;;;;4.93;3.22;;;;;;;-145.41;100.00;58600.66;4992501;28;20181;-75
2023/07/15 03:59:26;;;;;;;5.25;3.25;;;;;;;-145.41;100.00;58600.66;4990820;28;20049;-75
2023/07/15 04:01:52;;;;;;;4.75;3.00;;;;;;;-145.41;100.00;58600.66;4992565;28;20066;-75
2023/07/15 04:04:17;;;;;;;4.68;2.90;;;;;;;-145.41;100.00;58600.66;4992252;28;20073;-75
2023/07/15 04:06:43;;;;;;;5.10;3.05;;;;;;;-145.41;100.00;58600.66;4991178;28;20038;-75
2023/07/15 04:09:11;;;;;;;6.95;3.25;;;;;;;-145.41;100.00;58600.66;4990582;28;20038;-75
2023/07/15 04:11:37;;;;;;;4.30;3.20;;;;;;;-145.41;100.00;58600.66;4992358;28;20398;-75
2023/07/15 04:14:03;;;;;;;6.00;3.25;;;;;;;-145.41;100.00;58600.66;4992267;28;20026;-75
2023/07/15 04:16:29;;;;;;;5.20;3.38;;;;;;;-145.41;100.00;58600.66;4991724;28;20731;-75
2023/07/15 04:18:55;;;;;;;4.28;2.72;;;;;;;-145.41;100.00;58600.66;4991408;28;20030;-75
2023/07/15 04:21:21;;;;;;;6.25;3.13;;;;;;;-145.41;100.00;58600.66;4991959;28;20049;-75
2023/07/15 04:23:46;;;;;;;8.48;3.28;;;;;;;-145.41;100.00;58600.66;4992035;28;20108;-75
2023/07/15 04:26:12;;;;;;;6.13;3.80;;;;;;;-145.41;100.00;58600.66;4991694;28;20521;-75
2023/07/15 04:28:37;;;;;;;6.25;3.95;;;;;;;-145.41;100.00;58600.66;4990535;28;20030;-75
2023/07/15 04:31:03;;;;;;;7.20;2.90;;;;;;;-145.41;100.00;58600.66;4991248;28;20038;-75
2023/07/15 04:33:28;;;;;;;8.05;3.28;;;;;;;-145.41;100.00;58600.66;4991814;28;20038;-74
2023/07/15 04:35:53;;;;;;;4.30;2.63;;;;;;;-145.41;100.00;58600.66;4991542;28;20045;-75
2023/07/15 04:38:21;;;;;;;5.15;3.00;;;;;;;-145.41;100.00;58600.66;4994563;28;20038;-75
2023/07/15 04:40:47;;;;;;;5.90;3.30;;;;;;;-145.41;100.00;58600.66;4991292;28;20030;-75
2023/07/15 04:43:12;;;;;;;6.82;3.47;;;;;;;-145.41;100.00;58600.66;4991805;28;20110;-75
2023/07/15 04:45:37;;;;;;;5.40;3.05;;;;;;;-145.41;100.00;58600.66;4991561;28;20129;-75
2023/07/15 04:48:03;;;;;;;4.45;3.28;;;;;;;-145.41;100.00;58600.66;4991486;28;20125;-74
2023/07/15 04:50:28;;;;;;;6.55;3.88;;;;;;;-145.41;100.00;58600.66;4990624;28;20667;-75
2023/07/15 04:52:54;;;;;;;5.68;2.70;;;;;;;-145.41;100.00;58600.66;4991710;28;20034;-75
2023/07/15 04:55:20;;;;;;;7.40;3.53;;;;;;;-145.41;100.00;58600.66;4991589;28;20030;-75
2023/07/15 04:57:45;;;;;;;5.53;3.42;;;;;;;-145.41;100.00;58600.66;4991296;28;20045;-75
2023/07/15 05:00:11;;;;;;;5.55;3.60;;;;;;;-145.41;100.00;58600.66;4990820;28;20034;-75
2023/07/15 05:02:37;;;;;;;7.20;3.30;;;;;;;-145.41;100.00;58600.66;4991152;28;20065;-75
2023/07/15 05:05:04;;;;;;;5.63;3.50;;;;;;;-145.41;100.00;58600.66;4990895;28;20053;-75
2023/07/15 05:07:30;;;;;;;6.53;3.38;;;;;;;-145.41;100.00;58600.66;4992921;28;20436;-75
2023/07/15 05:09:55;;;;;;;4.63;3.00;;;;;;;-145.41;100.00;58600.66;4990820;28;20037;-75
2023/07/15 05:12:20;;;;;;;6.57;3.53;;;;;;;-145.41;100.00;58600.66;4991459;28;20034;-75
2023/07/15 05:14:45;;;;;;;5.22;3.53;;;;;;;-145.41;100.00;58600.66;4991356;28;20038;-75
2023/07/15 05:17:11;;;;;;;4.78;2.65;;;;;;;-145.41;100.00;58600.66;4991091;28;20038;-75
2023/07/15 05:19:36;;;;;;;4.93;2.92;;;;;;;-145.41;100.00;58600.66;4990420;28;20089;-75
2023/07/15 05:22:02;;;;;;;5.30;2.70;;;;;;;-145.41;100.00;58600.66;4990759;28;20130;-75
2023/07/15 05:24:28;;;;;;;4.38;2.40;;;;;;;-145.41;100.00;58600.66;4991283;28;20042;-75
2023/07/15 05:26:55;;;;;;;4.90;2.50;;;;;;;-145.41;100.00;58600.66;4989822;28;20034;-75
2023/07/15 05:29:20;;;;;;;4.55;2.58;;;;;;;-145.41;100.00;58600.66;4990458;28;20035;-75
2023/07/15 05:31:46;;;;;;;5.38;2.60;;;;;;;-145.41;100.00;58600.66;4990073;28;20072;-75
2023/07/15 05:34:11;;;;;;;5.68;2.70;;;;;;;-145.41;100.00;58600.66;4990805;28;20088;-74
2023/07/15 05:36:37;;;;;;;5.38;2.20;;;;;;;-145.41;100.00;58600.66;4991042;28;20125;-75
2023/07/15 05:39:02;;;;;;;3.90;2.53;;;;;;;-145.41;100.00;58600.66;4991233;28;20030;-76
2023/07/15 05:41:28;;;;;;;4.32;2.55;;;;;;;-145.41;100.00;58600.66;4991132;28;20042;-75
2023/07/15 05:43:53;;;;;;;4.03;2.45;;;;;;;-145.41;100.00;58600.66;4991080;28;20034;-74
2023/07/15 05:46:19;;;;;;;5.85;2.97;;;;;;;-145.41;100.00;58600.66;4990906;28;20211;-75
2023/07/15 05:48:44;;;;;;;4.45;2.05;;;;;;;-145.41;100.00;58600.66;4990351;28;21244;-75
2023/07/15 05:51:10;;;;;;;5.18;2.30;;;;;;;-145.41;100.00;58600.66;4990746;28;20484;-74
2023/07/15 05:53:35;;;;;;;3.50;2.15;;;;;;;-145.41;100.00;58600.66;4990980;28;20109;-75
2023/07/15 05:56:01;;;;;;;3.88;2.20;;;;;;;-145.41;100.00;58600.66;4990831;28;20058;-75
2023/07/15 05:58:26;;;;;;;3.95;2.53;;;;;;;-145.41;100.00;58600.66;4990447;28;20046;-75
2023/07/15 06:00:52;;;;;;;5.43;3.03;;;;;;;-145.41;100.00;58600.66;4988977;28;20026;-75
2023/07/15 06:03:17;;;;;;;3.90;2.47;;;;;;;-145.41;100.00;58600.66;4990925;28;20501;-75
2023/07/15 06:05:43;;;;;;;4.00;2.17;;;;;;;-145.41;100.00;58600.66;4990386;28;20682;-75
2023/07/15 06:08:09;;;;;;;4.20;2.47;;;;;;;-145.41;100.00;58600.66;4990216;28;20121;-75
2023/07/15 06:10:34;;;;;;;5.30;2.25;;;;;;;-145.41;100.00;58600.66;4990232;28;20117;-75
2023/07/15 06:13:00;;;;;;;6.22;2.33;;;;;;;-145.41;100.00;58600.66;4993672;28;20042;-75
2023/07/15 06:15:26;;;;;;;4.80;2.13;;;;;;;-145.41;100.00;58600.66;4994274;28;20042;-75
2023/07/15 06:17:51;;;;;;;4.93;2.30;;;;;;;-145.41;100.00;58600.66;4994117;28;20084;-75
2023/07/15 06:20:18;;;;;;;6.07;2.20;;;;;;;-145.41;100.00;58600.66;4993730;28;20061;-75
2023/07/15 06:22:44;;;;;;;3.05;1.83;;;;;;;-145.41;100.00;58600.66;4994411;28;20043;-75
2023/07/15 06:25:11;;;;;;;4.68;2.22;;;;;;;-145.41;100.00;58600.66;4994137;28;20042;-75
2023/07/15 06:27:37;;;;;;;3.92;2.10;;;;;;;-145.41;100.00;58600.66;4991578;28;20034;-75
2023/07/15 06:30:03;;;;;;;4.72;2.50;;;;;;;-145.41;100.00;58600.66;4993348;28;20408;-75
2023/07/15 06:32:29;;;;;;;5.93;2.10;;;;;;;-145.41;100.00;58600.66;4994053;28;20034;-75
2023/07/15 06:34:54;;;;;;;4.70;2.03;;;;;;;-145.41;100.00;58600.66;4993848;28;20044;-75
2023/07/15 06:37:19;;;;;;;4.43;1.80;;;;;;;-145.41;100.00;58600.66;4992788;28;20406;-75
2023/07/15 06:39:45;;;;;;;4.70;2.17;;;;;;;-145.41;100.00;58600.66;4993203;28;20416;-75
2023/07/15 06:42:10;;;;;;;4.05;1.88;;;;;;;-145.41;100.00;58600.66;4994225;28;20378;-75
2023/07/15 06:44:35;;;;;;;6.28;1.77;;;;;;;-145.41;100.00;58600.66;4993674;28;20576;-75
2023/07/15 06:47:01;;;;;;;3.05;1.73;;;;;;;-145.41;100.00;58600.66;4993803;28;20366;-76
2023/07/15 06:49:26;;;;;;;4.57;2.08;;;;;;;-145.41;100.00;58600.66;4993174;28;20548;-75
2023/07/15 06:51:51;;;;;;;4.00;1.88;;;;;;;-145.41;100.00;58600.66;4993746;28;20066;-76
2023/07/15 06:54:17;;;;;;;6.45;1.40;;;;;;;-145.41;100.00;58600.66;4993751;28;20489;-75
2023/07/15 06:56:42;;;;;;;2.95;1.52;;;;;;;-145.41;100.00;58600.66;4993585;28;20124;-75
2023/07/15 06:59:08;;;;;;;2.80;1.50;;;;;;;-145.41;100.00;58600.66;4992642;28;20038;-75
2023/07/15 07:01:33;;;;;;;5.88;1.80;;;;;;;-145.41;100.00;58600.66;4991135;28;20034;-76
2023/07/15 07:03:58;;;;;;;3.08;1.48;;;;;;;-145.41;100.00;58600.66;4991248;28;20083;-76
2023/07/15 07:06:25;;;;;;;4.13;1.88;;;;;;;-145.41;100.00;58600.66;4993370;28;20084;-75
2023/07/15 07:08:50;;;;;;;5.68;1.80;;;;;;;-145.41;100.00;58600.66;4992180;28;20037;-75
2023/07/15 07:11:16;;;;;;;4.10;1.45;;;;;;;-145.41;100.00;58600.66;4993476;28;20034;-75
2023/07/15 07:13:41;;;;;;;3.92;1.48;;;;;;;-145.41;100.00;58600.66;4993297;28;20034;-75
2023/07/15 07:16:07;;;;;;;7.47;1.55;;;;;;;-145.41;100.00;58600.66;4993268;28;20066;-75
2023/07/15 07:18:32;;;;;;;3.53;1.63;;;;;;;-145.41;100.00;58600.66;4993087;28;20041;-76
2023/07/15 07:20:59;;;;;;;2.92;1.50;;;;;;;-145.41;100.00;58600.66;4992542;28;20046;-75
2023/07/15 07:23:24;;;;;;;4.15;1.60;;;;;;;-145.41;100.00;58600.66;4992170;28;20077;-76
2023/07/15 07:25:50;;;;;;;3.28;1.50;;;;;;;-145.41;100.00;58600.66;4992909;28;20034;-75
2023/07/15 07:28:16;;;;;;;3.38;1.83;;;;;;;-145.41;100.00;58600.66;4992943;28;20065;-75
2023/07/15 07:30:41;;;;;;;2.50;1.60;;;;;;;-145.41;100.00;58600.66;4998231;28;20031;-76
2023/07/15 07:33:06;;;;;;;3.05;1.63;;;;;;;-145.41;100.00;58600.66;4993067;28;20023;-76
2023/07/15 07:35:32;;;;;;;4.40;1.50;;;;;;;-145.41;100.00;58600.66;4992642;28;20054;-76
2023/07/15 07:37:57;;;;;;;4.80;1.48;;;;;;;-145.41;100.00;58600.66;4992099;28;20034;-75
2023/07/15 07:40:22;;;;;;;5.32;1.80;;;;;;;-145.41;100.00;58600.66;4990822;28;20033;-76
2023/07/15 07:42:48;;;;;;;3.22;1.48;;;;;;;-145.41;100.00;58600.66;4991980;28;20504;-75
2023/07/15 07:45:14;;;;;;;3.40;1.38;;;;;;;-145.41;100.00;58600.66;4992488;28;20041;-76
2023/07/15 07:47:40;;;;;;;5.68;1.33;;;;;;;-145.41;100.00;58600.66;4992656;28;20069;-76
2023/07/15 07:50:06;;;;;;;2.65;1.52;;;;;;;-145.41;100.00;58600.66;4991895;28;20445;-76
2023/07/15 07:52:31;;;;;;;2.47;1.30;;;;;;;-145.41;100.00;58600.66;4992698;28;20033;-76
2023/07/15 07:54:56;;;;;;;4.45;1.65;;;;;;;-145.41;100.00;58600.66;4992524;28;20045;-76
2023/07/15 07:57:22;;;;;;;3.58;1.50;;;;;;;-145.41;100.00;58600.66;4992349;28;20041;-75
2023/07/15 07:59:47;;;;;;;4.30;1.55;;;;;;;-145.41;100.00;58600.66;4991877;28;20034;-76
2023/07/15 08:02:12;;;;;;;2.65;1.27;;;;;;;-145.41;100.00;58600.66;4992683;28;20485;-76
2023/07/15 08:04:38;;;;;;;3.20;1.42;;;;;;;-145.41;100.00;58600.66;4989648;28;20489;-76
2023/07/15 08:07:03;;;;;;;3.25;1.45;;;;;;;-145.41;100.00;58600.66;4991721;28;20033;-76
2023/07/15 08:09:28;;;;;;;5.82;2.03;;;;;;;-145.41;100.00;58600.66;4991560;28;20034;-76
2023/07/15 08:11:54;;;;;;;3.03;1.40;;;;;;;-145.41;100.00;58600.66;4992186;28;20042;-75
2023/07/15 08:14:19;;;;;;;2.65;1.35;;;;;;;-145.41;100.00;58600.66;4992064;28;20745;-76
2023/07/15 08:16:45;;;;;;;2.13;1.20;;;;;;;-145.41;100.00;58600.66;4992019;28;20038;-76
2023/07/15 08:19:11;;;;;;;3.00;1.30;;;;;;;-145.41;100.00;58600.66;4991377;28;20088;-76
2023/07/15 08:21:36;;;;;;;3.65;1.40;;;;;;;-145.41;100.00;58600.66;4991966;28;20031;-76
2023/07/15 08:24:02;;;;;;;3.20;1.50;;;;;;;-145.41;100.00;58600.66;4992020;28;20416;-76
2023/07/15 08:26:28;;;;;;;3.05;1.40;;;;;;;-145.41;100.00;58600.66;4991801;28;20037;-76
2023/07/15 08:28:55;;;;;;;2.13;1.38;;;;;;;-145.41;100.00;58600.66;4989954;28;20026;-76
2023/07/15 08:31:20;;;;;;;2.75;1.40;;;;;;;-145.41;100.00;58600.66;4991915;28;20045;-75
2023/07/15 08:33:46;;;;;;;2.60;1.30;;;;;;;-145.41;100.00;58600.66;4990537;28;20034;-76
2023/07/15 08:36:11;;;;;;;3.28;1.65;;;;;;;-145.41;100.00;58600.66;4991380;28;20101;-76
2023/07/15 08:38:36;;;;;;;3.20;1.50;;;;;;;-145.41;100.00;58600.66;4994398;28;20034;-76
2023/07/15 08:41:02;;;;;;;2.70;1.20;;;;;;;-145.41;100.00;58600.66;4991299;28;20038;-76
2023/07/15 08:43:30;;;;;;;2.58;1.25;;;;;;;-145.41;100.00;58600.66;4991510;28;20038;-76
2023/07/15 08:46:00;;;;;;;3.45;1.55;;;;;;;-145.41;100.00;58600.66;4997754;28;20052;-76
2023/07/15 08:48:25;;;;;;;2.97;1.35;;;;;;;-145.41;100.00;58600.66;4991536;28;20034;-76
2023/07/15 08:50:55;;;;;;;4.38;1.40;;;;;;;-145.41;100.00;58600.66;4989675;28;20042;-75
2023/07/15 08:53:25;;;;;;;2.85;1.70;;;;;;;-145.41;100.00;58600.66;4991143;28;20045;-76
2023/07/15 08:55:53;;;;;;;3.20;1.50;;;;;;;-145.41;100.00;58600.66;4990098;28;20049;-76
2023/07/15 08:58:20;;;;;;;3.28;1.52;;;;;;;-145.41;100.00;58600.66;4991331;28;21139;-76
2023/07/15 09:00:45;;;;;;;3.45;1.20;;;;;;;-145.41;100.00;58600.66;4990889;28;20030;-76
2023/07/15 09:03:10;;;;;;;2.38;1.08;;;;;;;-145.41;100.00;58600.66;4991528;28;20066;-76
2023/07/15 09:05:36;;;;;;;3.28;1.20;;;;;;;-145.41;100.00;58600.66;4991214;28;20043;-76
2023/07/15 09:08:09;;;;;;;3.15;1.20;;;;;;;-145.41;100.00;58600.66;4992911;28;20037;-75
2023/07/15 09:10:34;;;;;;;3.83;1.40;;;;;;;-145.41;100.00;58600.66;4990784;28;20036;-76
2023/07/15 09:13:00;;;;;;;3.38;1.38;;;;;;;-145.41;100.00;58600.66;4991055;28;20113;-76
2023/07/15 09:15:25;;;;;;;3.40;1.30;;;;;;;-145.41;100.00;58600.66;4991391;28;20408;-75
2023/07/15 09:17:56;;;;;;;2.80;1.40;;;;;;;-145.41;100.00;58600.66;4991278;28;20418;-76
2023/07/15 09:20:23;;;;;;;2.20;1.05;;;;;;;-145.41;100.00;58600.66;4990025;28;20583;-76
2023/07/15 09:22:59;;;;;;;5.35;1.65;;;;;;;-145.41;100.00;58600.66;4991225;28;20520;-76
2023/07/15 09:25:25;;;;;;;2.58;1.23;;;;;;;-145.41;100.00;58600.66;4991091;28;20034;-76
2023/07/15 09:27:52;;;;;;;2.20;1.30;;;;;;;-145.41;100.00;58600.66;4991157;28;20485;-76
2023/07/15 09:30:18;;;;;;;4.35;1.20;;;;;;;-145.41;100.00;58600.66;4989557;28;20349;-76
2023/07/15 09:32:43;;;;;;;2.60;1.23;;;;;;;-145.41;100.00;58600.66;4991165;28;20129;-76
2023/07/15 09:35:09;;;;;;;4.35;1.38;;;;;;;-145.41;100.00;58600.66;4991168;28;20042;-76
2023/07/15 09:37:35;;;;;;;3.75;1.60;;;;;;;-145.41;100.00;58600.66;4992413;28;20034;-76
2023/07/15 09:40:09;;;;;;;4.22;1.30;;;;;;;-145.41;100.00;58600.66;4990514;28;20117;-75
2023/07/15 09:42:54;;;;;;;3.47;1.48;;;;;;;-145.41;100.00;58600.66;4990766;28;20057;-76
2023/07/15 09:45:38;;;;;;;2.42;1.27;;;;;;;-145.41;100.00;58600.66;4990341;28;20038;-76
2023/07/15 09:48:08;;;;;;;3.08;1.33;;;;;;;-145.41;100.00;58600.66;4991835;28;20053;-77
2023/07/15 09:50:36;;;;;;;4.60;1.37;;;;;;;-145.41;100.00;58600.66;4991294;28;20042;-75
2023/07/15 09:53:03;;;;;;;2.05;1.13;;;;;;;-145.41;100.00;58600.66;4994863;28;20121;-75
2023/07/15 09:55:31;;;;;;;2.40;1.30;;;;;;;-145.41;100.00;58600.66;4994483;28;20046;-76
2023/07/15 09:57:59;;;;;;;3.50;1.40;;;;;;;-145.41;100.00;58600.66;4994534;28;20045;-76
2023/07/15 10:00:28;;;;;;;2.42;1.30;;;;;;;-145.41;100.00;58600.66;4993406;28;20405;-76
2023/07/15 10:02:58;;;;;;;3.22;1.40;;;;;;;-145.41;100.00;58600.66;4994459;28;20030;-76
2023/07/15 10:05:26;;;;;;;4.40;1.50;;;;;;;-145.41;100.00;58600.66;4994377;28;20528;-76
2023/07/15 10:07:51;;;;;;;3.80;1.45;;;;;;;-145.41;100.00;58600.66;4995874;28;20031;-76
2023/07/15 10:10:20;;;;;;;2.42;1.17;;;;;;;-145.41;100.00;58600.66;4993567;28;20038;-76
2023/07/15 10:12:45;;;;;;;3.08;1.02;;;;;;;-145.41;100.00;58600.66;4994360;28;20084;-76
2023/07/15 10:15:11;;;;;;;2.83;1.20;;;;;;;-145.41;100.00;58600.66;4994217;28;20433;-76
2023/07/15 10:17:38;;;;;;;4.65;1.10;;;;;;;-145.41;100.00;58600.66;4994295;28;20077;-76
2023/07/15 10:20:11;;;;;;;3.63;1.25;;;;;;;-145.41;100.00;58600.66;4992481;28;20038;-76
2023/07/15 10:22:38;;;;;;;3.80;1.00;;;;;;;-145.41;100.00;58600.66;4993609;28;20088;-76
2023/07/15 10:25:07;;;;;;;2.83;1.15;;;;;;;-145.41;100.00;58600.66;4994118;28;20476;-76
2023/07/15 10:27:33;;;;;;;4.28;1.35;;;;;;;-145.41;100.00;58600.66;4993318;28;20046;-76
2023/07/15 10:30:18;;;;;;;3.03;1.10;;;;;;;-145.41;100.00;58600.66;4992345;28;20027;-76
2023/07/15 10:32:58;;;;;;;3.75;1.30;;;;;;;-145.41;100.00;58600.66;4993085;28;20493;-76
2023/07/15 10:35:26;;;;;;;2.53;1.30;;;;;;;-145.41;100.00;58600.66;4993856;28;20085;-76
2023/07/15 10:37:51;;;;;;;2.20;1.23;;;;;;;-145.41;100.00;58600.66;4993346;28;20539;-76
2023/07/15 10:40:47;;;;;;;2.97;1.27;;;;;;;-145.41;100.00;58600.66;4993511;28;20026;-76
2023/07/15 10:43:17;;;;;;;2.33;1.25;;;;;;;-145.41;100.00;58600.66;4994148;28;20562;-76
2023/07/15 10:45:42;;;;;;;3.17;1.45;;;;;;;-145.41;100.00;58600.66;4993839;28;20463;-76
2023/07/15 10:48:10;;;;;;;2.88;0.95;;;;;;;-145.41;100.00;58600.66;4993738;28;20040;-76
2023/07/15 10:50:38;;;;;;;2.28;1.05;;;;;;;-145.41;100.00;58600.66;4992870;28;20062;-76
2023/07/15 10:53:23;;;;;;;2.72;1.20;;;;;;;-145.41;100.00;58600.66;4993943;28;20040;-76
2023/07/15 10:55:59;;;;;;;2.33;1.00;;;;;;;-145.41;100.00;58600.66;4992076;28;20034;-76
2023/07/15 10:58:26;;;;;;;2.53;1.10;;;;;;;-145.41;100.00;58600.66;4993194;28;20022;-75
2023/07/15 11:00:57;;;;;;;2.25;1.20;;;;;;;-145.41;100.00;58600.66;4991416;28;20034;-76
2023/07/15 11:03:22;;;;;;;3.50;1.27;;;;;;;-145.41;100.00;58600.66;4993518;28;20038;-76
2023/07/15 11:05:48;;;;;;;1.90;1.02;;;;;;;-145.41;100.00;58600.66;4993334;28;20109;-76
2023/07/15 11:08:14;;;;;;;2.40;1.40;;;;;;;-145.41;100.00;58600.66;4995933;28;20062;-76